Time;durP1;ratioP1;P1;durP2;ratioP2;P2;SDS_P1;SDS_P2;PMS_P1;PMS_P2;Temp;Humidity;BMP_temperature;BMP_pressure;BME280_temperature;BME280_humidity;BME280_pressure;Samples;Min_cycle;Max_cycle;Signal;HPM_P1;HPM_P2
2023/03/07 00:02:07;;;;;;;0.32;0.32;;;;;;;17.70;39.72;99575.72;5056313;28;20387;-49
2023/03/07 00:04:33;;;;;;;0.30;0.30;;;;;;;17.70;39.82;99587.59;5037694;28;20056;-50
2023/03/07 00:06:59;;;;;;;0.35;0.35;;;;;;;17.70;39.83;99579.34;5056201;28;20048;-51
2023/03/07 00:09:24;;;;;;;0.40;0.40;;;;;;;17.70;39.67;99582.09;5021525;28;20048;-49
2023/03/07 00:11:50;;;;;;;0.30;0.30;;;;;;;17.70;39.71;99578.50;5056268;28;20048;-49
2023/03/07 00:14:16;;;;;;;0.30;0.30;;;;;;;17.69;39.90;99572.16;5056047;28;20040;-48
2023/03/07 00:16:41;;;;;;;0.40;0.40;;;;;;;17.69;39.85;99569.41;5038022;28;20052;-48
2023/03/07 00:19:07;;;;;;;0.40;0.40;;;;;;;17.69;39.74;99572.16;5043387;28;20055;-48
2023/03/07 00:21:33;;;;;;;0.30;0.30;;;;;;;17.69;39.64;99571.34;5036367;28;20482;-49
2023/03/07 00:23:58;;;;;;;0.20;0.20;;;;;;;17.68;39.57;99570.53;5035908;28;20045;-48
2023/03/07 00:26:26;;;;;;;0.30;0.30;;;;;;;17.68;39.71;99573.28;5052675;28;20341;-51
2023/03/07 00:28:52;;;;;;;0.30;0.30;;;;;;;17.69;39.65;99565.84;5056406;28;20117;-50
2023/03/07 00:31:19;;;;;;;0.30;0.30;;;;;;;17.69;39.77;99565.84;5037993;28;20076;-50
2023/03/07 00:33:45;;;;;;;0.30;0.30;;;;;;;17.67;39.79;99566.16;5039483;28;20052;-48
2023/03/07 00:36:14;;;;;;;0.30;0.30;;;;;;;17.68;39.54;99562.28;5055544;28;20082;-52
2023/03/07 00:38:41;;;;;;;0.30;0.30;;;;;;;17.68;39.76;99570.53;5037826;28;20782;-48
2023/03/07 00:41:09;;;;;;;0.40;0.40;;;;;;;17.69;39.61;99563.09;5020298;28;20123;-48
2023/03/07 00:43:35;;;;;;;0.30;0.30;;;;;;;17.68;39.51;99565.03;5015420;28;20054;-49
2023/03/07 00:46:01;;;;;;;0.30;0.30;;;;;;;17.67;39.79;99557.91;5042933;28;20243;-50
2023/03/07 00:48:27;;;;;;;0.30;0.30;;;;;;;17.68;39.76;99553.22;5056083;28;20056;-49
2023/03/07 00:50:54;;;;;;;0.35;0.35;;;;;;;17.68;39.66;99558.72;5037208;28;20071;-49
2023/03/07 00:53:20;;;;;;;0.30;0.30;;;;;;;17.67;39.61;99562.59;5055354;28;20250;-48
2023/03/07 00:56:12;;;;;;;0.30;0.30;;;;;;;17.68;39.75;99554.03;5037289;28;20114;-48
2023/03/07 00:58:38;;;;;;;0.38;0.38;;;;;;;17.68;39.78;99555.97;5041630;28;20072;-48
2023/03/07 01:01:05;;;;;;;0.30;0.30;;;;;;;17.66;39.79;99553.53;5055422;28;20068;-49
2023/03/07 01:03:32;;;;;;;0.30;0.30;;;;;;;17.68;39.65;99554.03;5054307;28;20044;-48
2023/03/07 01:06:01;;;;;;;0.30;0.30;;;;;;;17.66;39.51;99553.53;5055152;28;20076;-49
2023/03/07 01:08:27;;;;;;;0.30;0.30;;;;;;;17.65;39.55;99549.13;5054929;28;20052;-48
2023/03/07 01:10:58;;;;;;;0.32;0.32;;;;;;;17.66;39.63;99544.41;5054955;28;20049;-49
2023/03/07 01:13:23;;;;;;;0.30;0.30;;;;;;;17.66;39.58;99547.16;5020678;28;20649;-50
2023/03/07 01:15:49;;;;;;;0.30;0.30;;;;;;;17.66;39.59;99542.50;5054934;28;20338;-50
2023/03/07 01:18:14;;;;;;;0.30;0.30;;;;;;;17.67;39.63;99540.56;5052788;28;20489;-48
2023/03/07 01:20:40;;;;;;;0.30;0.30;;;;;;;17.66;39.34;99544.41;5037447;28;20048;-50
2023/03/07 01:23:06;;;;;;;0.30;0.30;;;;;;;17.67;39.51;99548.81;5054939;28;20507;-49
2023/03/07 01:25:40;;;;;;;0.40;0.40;;;;;;;17.66;39.81;99536.16;5036558;28;20097;-49
2023/03/07 01:28:06;;;;;;;0.30;0.30;;;;;;;17.65;39.87;99540.03;5054891;28;20469;-50
2023/03/07 01:30:32;;;;;;;0.30;0.30;;;;;;;17.65;39.60;99531.78;5035635;28;20048;-51
2023/03/07 01:32:59;;;;;;;0.30;0.30;;;;;;;17.65;39.59;99534.53;5016215;28;20056;-50
2023/03/07 01:35:25;;;;;;;0.30;0.30;;;;;;;17.66;39.47;99538.91;5047291;28;20581;-50
2023/03/07 01:37:51;;;;;;;0.30;0.30;;;;;;;17.65;39.70;99529.84;5019591;28;20123;-48
2023/03/07 01:40:18;;;;;;;0.30;0.30;;;;;;;17.65;39.58;99529.03;5054362;28;20052;-48
2023/03/07 01:42:44;;;;;;;0.35;0.35;;;;;;;17.64;39.58;99530.97;5038592;28;20060;-50
2023/03/07 01:47:48;;;;;;;0.30;0.30;;;;;;;17.64;39.61;99530.16;5173495;27;20123;-46
2023/03/07 01:50:15;;;;;;;0.30;0.30;;;;;;;17.63;39.66;99523.84;5152736;27;20046;-48
2023/03/07 01:52:45;;;;;;;0.35;0.35;;;;;;;17.65;39.49;99521.59;5130120;27;20481;-49
2023/03/07 01:55:15;;;;;;;0.30;0.30;;;;;;;17.64;39.64;99519.97;5138243;27;20054;-45
2023/03/07 01:57:42;;;;;;;0.30;0.30;;;;;;;17.64;39.37;99514.44;5152134;27;20057;-46
2023/03/07 02:00:12;;;;;;;0.30;0.30;;;;;;;17.63;39.57;99510.06;5133620;27;20074;-46
2023/03/07 02:02:40;;;;;;;0.40;0.40;;;;;;;17.64;39.74;99505.38;5134338;27;20053;-47
2023/03/07 02:05:17;;;;;;;0.40;0.38;;;;;;;17.64;39.47;99508.13;5151987;27;20047;-47
2023/03/07 02:07:48;;;;;;;0.30;0.30;;;;;;;17.64;39.41;99503.44;5151794;27;20050;-46
2023/03/07 02:10:15;;;;;;;0.30;0.30;;;;;;;17.63;39.31;99499.06;5116867;27;20275;-47
2023/03/07 02:12:40;;;;;;;0.30;0.30;;;;;;;17.63;39.50;99490.81;5133787;27;20111;-47
2023/03/07 02:15:08;;;;;;;0.30;0.30;;;;;;;17.63;39.58;99490.81;5152072;27;20034;-46
2023/03/07 02:17:34;;;;;;;0.20;0.20;;;;;;;17.63;39.64;99490.00;5152316;27;20046;-47
2023/03/07 02:20:30;;;;;;;0.30;0.30;;;;;;;17.62;39.50;99486.41;5122662;27;20108;-47
2023/03/07 02:22:56;;;;;;;0.38;0.38;;;;;;;17.63;39.44;99479.78;5129815;27;20047;-48
2023/03/07 02:25:30;;;;;;;0.30;0.30;;;;;;;17.62;39.35;99494.69;5135133;27;20050;-45
2023/03/07 02:27:57;;;;;;;0.30;0.30;;;;;;;17.62;39.42;99478.16;5130833;27;20545;-45
2023/03/07 02:30:22;;;;;;;0.30;0.30;;;;;;;17.63;39.53;99487.25;5131217;27;20086;-46
2023/03/07 02:32:48;;;;;;;0.30;0.30;;;;;;;17.62;39.45;99477.34;5131431;27;20038;-47
2023/03/07 02:35:21;;;;;;;0.30;0.30;;;;;;;17.61;39.66;99465.50;5131093;27;20074;-48
2023/03/07 02:37:50;;;;;;;0.40;0.40;;;;;;;17.61;39.42;99467.44;5112214;27;20089;-48
2023/03/07 02:40:19;;;;;;;0.40;0.40;;;;;;;17.62;39.51;99458.09;5108400;28;20051;-49
2023/03/07 02:42:45;;;;;;;0.30;0.30;;;;;;;17.62;39.48;99458.09;5115368;27;20046;-47
2023/03/07 02:45:13;;;;;;;0.30;0.30;;;;;;;17.62;39.39;99463.59;5112497;27;20065;-48
2023/03/07 02:47:42;;;;;;;0.30;0.30;;;;;;;17.61;39.50;99453.69;5130899;27;20074;-46
2023/03/07 02:50:08;;;;;;;0.30;0.30;;;;;;;17.61;39.58;99454.50;5131298;27;20057;-48
2023/03/07 02:52:33;;;;;;;0.38;0.38;;;;;;;17.60;39.52;99444.59;5112379;27;20073;-48
2023/03/07 02:54:59;;;;;;;0.43;0.43;;;;;;;17.61;39.58;99448.16;5131390;27;20047;-47
2023/03/07 02:57:25;;;;;;;0.30;0.30;;;;;;;17.61;39.45;99445.41;5127260;27;20051;-45
2023/03/07 02:59:50;;;;;;;0.30;0.30;;;;;;;17.60;39.57;99449.28;5081549;28;20537;-47
2023/03/07 03:02:16;;;;;;;0.30;0.30;;;;;;;17.62;39.58;99447.88;5116548;28;20051;-48
2023/03/07 03:04:42;;;;;;;0.32;0.32;;;;;;;17.61;39.42;99439.91;5116771;28;20107;-46
2023/03/07 03:07:08;;;;;;;0.30;0.30;;;;;;;17.59;39.57;99440.22;5116476;28;20433;-47
2023/03/07 03:09:33;;;;;;;0.30;0.30;;;;;;;17.61;39.55;99439.91;5098420;28;20047;-46
2023/03/07 03:11:59;;;;;;;0.30;0.30;;;;;;;17.60;39.48;99441.03;5116632;28;20112;-48
2023/03/07 03:14:25;;;;;;;0.30;0.30;;;;;;;17.60;39.44;99438.28;5117169;28;20039;-47
2023/03/07 03:16:51;;;;;;;0.30;0.30;;;;;;;17.60;39.32;99441.03;5111424;27;20050;-48
2023/03/07 03:19:17;;;;;;;0.30;0.30;;;;;;;17.59;39.36;99442.97;5116498;28;20085;-45
2023/03/07 03:21:42;;;;;;;0.30;0.30;;;;;;;17.60;39.58;99438.28;5110934;28;20051;-48
2023/03/07 03:24:09;;;;;;;0.30;0.30;;;;;;;17.60;39.37;99436.34;5094951;28;20036;-49
2023/03/07 03:26:35;;;;;;;0.30;0.30;;;;;;;17.60;39.50;99438.28;5114470;27;20074;-45
2023/03/07 03:29:02;;;;;;;0.30;0.30;;;;;;;17.60;39.53;99430.84;5097908;28;20050;-46
2023/03/07 03:31:29;;;;;;;0.38;0.38;;;;;;;17.60;39.36;99438.28;5081246;28;20165;-46
2023/03/07 03:33:55;;;;;;;0.30;0.30;;;;;;;17.59;39.49;99434.72;5116670;28;20054;-46
2023/03/07 03:36:24;;;;;;;0.35;0.35;;;;;;;17.58;39.62;99430.34;5095510;28;20599;-46
2023/03/07 03:38:52;;;;;;;0.30;0.30;;;;;;;17.59;39.27;99425.66;5105086;28;20043;-47
2023/03/07 03:41:17;;;;;;;0.30;0.30;;;;;;;17.58;39.72;99424.84;5103109;27;20484;-46
2023/03/07 03:43:43;;;;;;;0.30;0.30;;;;;;;17.59;39.33;99423.72;5099832;28;20047;-47
2023/03/07 03:46:09;;;;;;;0.30;0.30;;;;;;;17.58;39.48;99411.06;5115759;28;20143;-48
2023/03/07 03:48:35;;;;;;;0.35;0.35;;;;;;;17.58;39.54;99415.78;5097846;28;20058;-47
2023/03/07 03:51:04;;;;;;;0.30;0.30;;;;;;;17.58;39.32;99411.06;5116083;28;20402;-46
2023/03/07 03:53:30;;;;;;;0.30;0.30;;;;;;;17.58;39.55;99415.78;5097647;28;20043;-48
2023/03/07 03:56:01;;;;;;;0.30;0.30;;;;;;;17.58;39.41;99408.31;5115653;28;20123;-48
2023/03/07 03:58:27;;;;;;;0.30;0.30;;;;;;;17.58;39.34;99407.50;5097311;28;20043;-49
2023/03/07 04:00:52;;;;;;;0.30;0.30;;;;;;;17.58;39.47;99399.25;5113162;28;20059;-46
2023/03/07 04:03:18;;;;;;;0.38;0.38;;;;;;;17.57;39.41;99401.16;5074695;28;20454;-47
2023/03/07 04:05:44;;;;;;;0.30;0.30;;;;;;;17.56;39.65;99392.09;5097006;28;20082;-46
2023/03/07 04:08:09;;;;;;;0.30;0.30;;;;;;;17.57;39.48;99395.66;5115610;28;20088;-47
2023/03/07 04:10:35;;;;;;;0.40;0.40;;;;;;;17.56;39.46;99394.03;5114418;27;20054;-45
2023/03/07 04:13:01;;;;;;;0.30;0.30;;;;;;;17.56;39.41;99386.59;5115526;28;20046;-47
2023/03/07 04:15:26;;;;;;;0.40;0.40;;;;;;;17.56;39.23;99389.34;5115623;28;20428;-46
2023/03/07 04:17:52;;;;;;;0.30;0.30;;;;;;;17.57;39.49;99381.91;5115560;28;20047;-47
2023/03/07 04:20:18;;;;;;;0.30;0.30;;;;;;;17.56;39.42;99372.81;5115633;28;20043;-48
2023/03/07 04:22:43;;;;;;;0.35;0.35;;;;;;;17.55;39.36;99376.72;5115842;28;20043;-46
2023/03/07 04:25:09;;;;;;;0.40;0.40;;;;;;;17.56;39.24;99375.56;5114828;27;20054;-47
2023/03/07 04:27:35;;;;;;;0.30;0.30;;;;;;;17.57;39.45;99379.16;5115365;28;20626;-45
2023/03/07 04:30:01;;;;;;;0.40;0.40;;;;;;;17.56;39.56;99374.78;5115526;28;20043;-47
2023/03/07 04:32:26;;;;;;;0.40;0.40;;;;;;;17.55;39.42;99362.13;5096295;28;20065;-48
2023/03/07 04:34:52;;;;;;;0.30;0.30;;;;;;;17.56;39.49;99359.06;5115252;28;20529;-47
2023/03/07 04:37:17;;;;;;;0.30;0.30;;;;;;;17.56;39.56;99370.06;5114643;28;20419;-46
2023/03/07 04:39:43;;;;;;;0.30;0.30;;;;;;;17.54;39.56;99364.06;5079972;28;20047;-46
2023/03/07 04:42:09;;;;;;;0.35;0.35;;;;;;;17.56;39.57;99350.00;5114966;28;20051;-50
2023/03/07 04:44:34;;;;;;;0.30;0.30;;;;;;;17.55;39.49;99349.19;5115834;27;20050;-46
2023/03/07 04:47:00;;;;;;;0.30;0.30;;;;;;;17.56;39.42;99356.31;5114489;28;20082;-47
2023/03/07 04:49:26;;;;;;;0.30;0.30;;;;;;;17.55;39.46;99357.44;5115317;28;20182;-48
2023/03/07 04:51:51;;;;;;;0.30;0.30;;;;;;;17.56;39.49;99353.56;5115398;28;20065;-47
2023/03/07 04:54:17;;;;;;;0.40;0.40;;;;;;;17.55;39.31;99343.69;5114668;28;20400;-46
2023/03/07 04:56:43;;;;;;;0.30;0.30;;;;;;;17.55;39.57;99342.88;5114919;28;20057;-48
2023/03/07 04:59:08;;;;;;;0.30;0.30;;;;;;;17.55;39.25;99348.38;5116012;28;20046;-47
2023/03/07 05:01:34;;;;;;;0.30;0.30;;;;;;;17.55;39.29;99342.88;5114757;28;20039;-46
2023/03/07 05:04:00;;;;;;;0.30;0.30;;;;;;;17.55;39.51;99346.44;5096571;28;20215;-49
2023/03/07 05:06:26;;;;;;;0.30;0.30;;;;;;;17.54;39.38;99331.03;5114886;28;20039;-45
2023/03/07 05:08:51;;;;;;;0.40;0.40;;;;;;;17.54;39.58;99336.56;5114548;28;20423;-48
2023/03/07 05:11:17;;;;;;;0.30;0.30;;;;;;;17.53;39.32;99337.69;5114929;28;20047;-45
2023/03/07 05:13:43;;;;;;;0.30;0.30;;;;;;;17.55;39.20;99340.13;5096639;28;20055;-47
2023/03/07 05:16:08;;;;;;;0.30;0.30;;;;;;;17.54;39.41;99327.47;5114118;27;20047;-47
2023/03/07 05:18:34;;;;;;;0.40;0.40;;;;;;;17.54;39.43;99330.22;5108620;27;20050;-47
2023/03/07 05:21:00;;;;;;;0.30;0.30;;;;;;;17.53;39.36;99323.91;5072571;28;20076;-48
2023/03/07 05:23:25;;;;;;;0.32;0.32;;;;;;;17.53;39.35;99323.91;5073368;28;20150;-47
2023/03/07 05:25:51;;;;;;;0.30;0.30;;;;;;;17.53;39.43;99321.16;5097588;27;20045;-49
2023/03/07 05:28:17;;;;;;;0.30;0.30;;;;;;;17.54;39.19;99320.03;5114239;28;20483;-46
2023/03/07 05:30:45;;;;;;;0.30;0.30;;;;;;;17.53;39.34;99317.59;5114682;28;20051;-46
2023/03/07 05:33:10;;;;;;;0.30;0.30;;;;;;;17.54;39.28;99314.53;5096232;28;20131;-48
2023/03/07 05:35:37;;;;;;;0.40;0.40;;;;;;;17.53;39.40;99309.34;5112662;28;20050;-48
2023/03/07 05:38:03;;;;;;;0.40;0.40;;;;;;;17.53;39.45;99315.66;5113702;28;20082;-47
2023/03/07 05:40:29;;;;;;;0.40;0.40;;;;;;;17.53;39.44;99314.84;5096277;28;20054;-47
2023/03/07 05:42:55;;;;;;;0.30;0.30;;;;;;;17.53;39.42;99312.91;5101027;28;20406;-49
2023/03/07 05:45:21;;;;;;;0.30;0.30;;;;;;;17.53;39.37;99314.84;5113940;28;20043;-46
2023/03/07 05:47:46;;;;;;;0.40;0.40;;;;;;;17.52;39.18;99308.50;5113720;28;20138;-46
2023/03/07 05:50:12;;;;;;;0.30;0.30;;;;;;;17.52;39.54;99315.94;5093104;28;20056;-47
2023/03/07 05:52:38;;;;;;;0.30;0.30;;;;;;;17.52;39.36;99302.19;5078669;28;20043;-47
2023/03/07 05:55:05;;;;;;;0.40;0.40;;;;;;;17.52;39.51;99311.25;5083640;28;20628;-48
2023/03/07 05:57:31;;;;;;;0.30;0.30;;;;;;;17.52;39.37;99313.19;5105660;28;20050;-45
2023/03/07 05:59:57;;;;;;;0.38;0.38;;;;;;;17.52;39.59;99310.44;5111335;27;20043;-48
2023/03/07 06:02:22;;;;;;;0.30;0.30;;;;;;;17.52;39.41;99305.75;5110125;28;20051;-48
2023/03/07 06:04:48;;;;;;;0.40;0.40;;;;;;;17.52;39.42;99308.50;5110903;28;20194;-46
2023/03/07 06:07:14;;;;;;;0.30;0.30;;;;;;;17.52;39.12;99299.44;5109738;28;20463;-49
2023/03/07 06:09:39;;;;;;;0.30;0.30;;;;;;;17.51;39.49;99301.38;5087050;27;20448;-45
2023/03/07 06:12:05;;;;;;;0.40;0.40;;;;;;;17.51;39.38;99301.38;5110780;27;20546;-46
2023/03/07 06:14:31;;;;;;;0.30;0.30;;;;;;;17.51;39.28;99306.88;5104013;27;20041;-46
2023/03/07 06:16:57;;;;;;;0.30;0.30;;;;;;;17.51;39.42;99304.13;5098219;28;20047;-45
2023/03/07 06:19:22;;;;;;;0.30;0.30;;;;;;;17.51;39.29;99292.31;5111107;28;20043;-48
2023/03/07 06:21:48;;;;;;;0.30;0.30;;;;;;;17.51;39.39;99290.38;5110152;28;20499;-48
2023/03/07 06:24:14;;;;;;;0.30;0.30;;;;;;;17.47;39.70;99294.03;5113477;28;20049;-45
2023/03/07 06:26:39;;;;;;;0.40;0.40;;;;;;;17.54;39.87;99299.97;5107407;27;20256;-44
2023/03/07 06:29:05;;;;;;;0.40;0.40;;;;;;;17.58;41.17;99291.91;5097763;28;20427;-43
2023/03/07 06:31:31;;;;;;;0.30;0.30;;;;;;;17.55;42.34;99296.88;5102537;28;20047;-44
2023/03/07 06:33:56;;;;;;;0.35;0.35;;;;;;;17.56;43.56;99284.75;5097172;27;21001;-45
2023/03/07 06:36:23;;;;;;;0.30;0.30;;;;;;;17.55;43.45;99291.38;5109667;28;20102;-46
2023/03/07 06:38:48;;;;;;;0.30;0.30;;;;;;;17.55;43.37;99290.56;5103105;28;20040;-45
2023/03/07 06:41:14;;;;;;;0.30;0.30;;;;;;;17.54;42.85;99287.00;5109132;28;20542;-47
2023/03/07 06:43:40;;;;;;;0.40;0.40;;;;;;;17.54;43.17;99289.75;5111315;28;20051;-47
2023/03/07 06:46:05;;;;;;;0.40;0.40;;;;;;;17.54;42.92;99276.00;5112973;27;20038;-41
2023/03/07 06:48:33;;;;;;;0.30;0.30;;;;;;;17.58;42.22;99280.88;5111876;28;20466;-41
2023/03/07 06:51:04;;;;;;;0.30;0.30;;;;;;;17.58;42.72;99272.63;5106420;28;20522;-42
2023/03/07 06:53:30;;;;;;;0.30;0.30;;;;;;;17.58;42.26;99276.19;5101500;28;20081;-41
2023/03/07 06:55:55;;;;;;;0.30;0.30;;;;;;;17.57;42.35;99277.28;5109617;28;20043;-42
2023/03/07 06:58:21;;;;;;;0.30;0.30;;;;;;;17.58;42.25;99273.44;5105601;28;20497;-42
2023/03/07 07:00:47;;;;;;;0.32;0.32;;;;;;;17.58;42.15;99267.94;5098724;27;20045;-43
2023/03/07 07:03:13;;;;;;;0.30;0.30;;;;;;;17.58;42.09;99272.63;5098270;28;20047;-41
2023/03/07 07:05:39;;;;;;;0.30;0.30;;;;;;;17.58;42.19;99269.88;5077270;28;20304;-42
2023/03/07 07:08:05;;;;;;;0.30;0.30;;;;;;;17.59;41.92;99272.31;5094357;27;21180;-41
2023/03/07 07:10:31;;;;;;;0.30;0.30;;;;;;;17.59;42.02;99277.00;5103616;28;20487;-41
2023/03/07 07:12:56;;;;;;;0.40;0.40;;;;;;;17.58;41.99;99265.19;5104963;28;20039;-42
2023/03/07 07:15:23;;;;;;;0.30;0.30;;;;;;;17.61;41.87;99269.25;5102197;28;20552;-43
2023/03/07 07:17:50;;;;;;;0.40;0.40;;;;;;;17.60;41.81;99265.69;5104989;28;20127;-41
2023/03/07 07:20:16;;;;;;;0.30;0.30;;;;;;;17.61;41.49;99264.53;5089833;28;20090;-41
2023/03/07 07:22:41;;;;;;;0.30;0.30;;;;;;;17.60;41.71;99262.91;5108474;28;20507;-41
2023/03/07 07:25:08;;;;;;;0.30;0.30;;;;;;;17.63;41.91;99261.50;5111795;27;20047;-44
2023/03/07 07:27:35;;;;;;;0.30;0.30;;;;;;;17.63;41.80;99264.25;5105767;28;20086;-41
2023/03/07 07:30:02;;;;;;;0.30;0.30;;;;;;;17.63;41.26;99259.56;5096069;28;20043;-42
2023/03/07 07:32:28;;;;;;;0.30;0.30;;;;;;;17.63;41.70;99273.31;5109464;28;20156;-42
2023/03/07 07:34:54;;;;;;;0.30;0.30;;;;;;;17.63;41.38;99265.06;5104828;28;20045;-42
2023/03/07 07:37:19;;;;;;;0.30;0.30;;;;;;;17.62;41.37;99260.69;5110551;28;20049;-42
2023/03/07 07:39:45;;;;;;;0.30;0.30;;;;;;;17.64;41.13;99265.88;5106029;28;20107;-44
2023/03/07 07:42:11;;;;;;;0.32;0.32;;;;;;;17.70;41.34;99264.63;5102832;27;20086;-43
2023/03/07 07:44:36;;;;;;;0.40;0.40;;;;;;;17.68;41.14;99258.63;5100876;27;20035;-41
2023/03/07 07:47:02;;;;;;;0.30;0.30;;;;;;;17.69;41.14;99272.06;5089199;28;20054;-41
2023/03/07 07:49:28;;;;;;;0.30;0.30;;;;;;;17.67;41.20;99271.56;5105527;28;20099;-42
2023/03/07 07:51:54;;;;;;;0.30;0.30;;;;;;;17.68;41.26;99273.19;5099776;27;20051;-41
2023/03/07 07:54:19;;;;;;;0.30;0.30;;;;;;;17.66;41.10;99263.59;5104155;27;20051;-43
2023/03/07 07:56:45;;;;;;;0.30;0.30;;;;;;;17.66;41.03;99269.13;5104006;28;20051;-41
2023/03/07 07:59:11;;;;;;;0.30;0.30;;;;;;;17.65;41.20;99268.31;5098505;28;20111;-44
2023/03/07 08:01:37;;;;;;;0.38;0.38;;;;;;;17.63;41.18;99273.31;5091488;28;20954;-41
2023/03/07 08:04:02;;;;;;;0.30;0.30;;;;;;;17.63;41.12;99270.56;5093280;28;20210;-42
2023/03/07 08:06:28;;;;;;;0.30;0.30;;;;;;;17.63;41.11;99264.25;5092910;28;20047;-41
2023/03/07 08:08:54;;;;;;;0.30;0.30;;;;;;;17.64;41.24;99272.19;5091580;28;20043;-41
2023/03/07 08:11:21;;;;;;;0.30;0.30;;;;;;;17.62;41.01;99271.69;5073549;28;20074;-41
2023/03/07 08:13:46;;;;;;;0.30;0.30;;;;;;;17.62;41.02;99265.38;5059670;28;20771;-43
2023/03/07 08:16:14;;;;;;;0.30;0.30;;;;;;;17.62;41.05;99266.19;5098331;27;20327;-44
2023/03/07 08:18:41;;;;;;;0.30;0.30;;;;;;;17.62;41.04;99266.19;5088658;28;20506;-41
2023/03/07 08:21:07;;;;;;;0.35;0.35;;;;;;;17.62;40.93;99262.63;5081717;28;20043;-43
2023/03/07 08:23:34;;;;;;;0.30;0.30;;;;;;;17.60;40.96;99256.59;5077695;28;20078;-41
2023/03/07 08:26:01;;;;;;;0.30;0.30;;;;;;;17.61;41.07;99264.53;5079277;27;20093;-44
2023/03/07 08:28:27;;;;;;;0.30;0.30;;;;;;;17.60;41.15;99256.59;5068972;28;20138;-41
2023/03/07 08:30:53;;;;;;;0.30;0.30;;;;;;;17.61;41.07;99255.47;5103454;27;20085;-41
2023/03/07 08:33:19;;;;;;;0.30;0.30;;;;;;;17.61;40.67;99260.97;5108558;27;20064;-42
2023/03/07 08:35:44;;;;;;;0.30;0.30;;;;;;;17.61;40.86;99259.03;5104642;28;20439;-42
2023/03/07 08:38:10;;;;;;;0.30;0.30;;;;;;;17.60;40.86;99262.09;5108213;27;20186;-42
2023/03/07 08:40:36;;;;;;;0.30;0.30;;;;;;;17.60;40.98;99257.41;5107397;28;20043;-44
2023/03/07 08:43:01;;;;;;;0.30;0.30;;;;;;;17.60;41.05;99249.16;5108703;27;20046;-43
2023/03/07 08:45:27;;;;;;;0.30;0.30;;;;;;;17.59;41.14;99253.03;5109201;27;20123;-42
2023/03/07 08:47:53;;;;;;;0.30;0.30;;;;;;;17.59;41.14;99261.31;5105368;28;20062;-41
2023/03/07 08:50:21;;;;;;;0.30;0.30;;;;;;;17.59;40.99;99253.03;5103898;28;20085;-43
2023/03/07 08:52:46;;;;;;;0.30;0.30;;;;;;;17.59;40.98;99250.28;5107706;28;20827;-43
2023/03/07 08:55:12;;;;;;;0.30;0.30;;;;;;;17.59;40.88;99260.50;5105378;27;20046;-42
2023/03/07 08:57:38;;;;;;;0.40;0.40;;;;;;;17.59;41.26;99253.03;5105842;27;20051;-42
2023/03/07 09:00:07;;;;;;;0.30;0.30;;;;;;;17.59;40.96;99264.06;5096489;28;20066;-43
2023/03/07 09:02:33;;;;;;;0.30;0.30;;;;;;;17.58;40.65;99265.19;5103319;27;20463;-43
2023/03/07 09:04:58;;;;;;;0.30;0.30;;;;;;;17.60;41.22;99275.88;5102380;28;20717;-41
2023/03/07 09:07:24;;;;;;;0.30;0.30;;;;;;;17.24;42.93;99262.91;5098766;28;20131;-44
2023/03/07 09:09:50;;;;;;;0.30;0.30;;;;;;;17.45;42.04;99274.28;5099831;27;20055;-43
2023/03/07 09:12:15;;;;;;;0.30;0.30;;;;;;;17.54;41.74;99283.44;5100224;28;20047;-42
2023/03/07 09:14:41;;;;;;;0.30;0.30;;;;;;;17.65;43.44;99281.25;5101519;28;20484;-45
2023/03/07 09:17:07;;;;;;;0.30;0.30;;;;;;;17.63;42.33;99283.53;5099270;28;20049;-44
2023/03/07 09:19:34;;;;;;;0.30;0.30;;;;;;;17.64;42.10;99293.41;5097294;27;20268;-41
2023/03/07 09:21:59;;;;;;;0.30;0.30;;;;;;;17.63;42.00;99302.78;5101538;27;20780;-42
2023/03/07 09:24:25;;;;;;;0.30;0.30;;;;;;;17.62;42.09;99301.97;5085431;28;20650;-41
2023/03/07 09:26:51;;;;;;;0.32;0.32;;;;;;;17.62;41.85;99301.16;5099673;27;20304;-42
2023/03/07 09:29:17;;;;;;;0.30;0.30;;;;;;;17.62;41.63;99296.47;5083129;27;20074;-42
2023/03/07 09:31:43;;;;;;;0.30;0.30;;;;;;;17.63;41.49;99294.53;5078336;28;20051;-43
2023/03/07 09:34:10;;;;;;;0.30;0.30;;;;;;;17.65;41.77;99295.03;5098995;28;20050;-41
2023/03/07 09:36:36;;;;;;;0.30;0.30;;;;;;;17.64;41.74;99288.72;5089672;27;20116;-44
2023/03/07 09:39:03;;;;;;;0.30;0.30;;;;;;;17.65;41.70;99295.03;5068849;28;20103;-41
2023/03/07 09:41:55;;;;;;;0.30;0.30;;;;;;;17.59;42.64;99297.09;5074224;27;20201;-41
2023/03/07 09:44:51;;;;;;;0.30;0.30;;;;;;;17.64;41.87;99293.41;5082369;27;20601;-42
2023/03/07 09:47:41;;;;;;;0.30;0.30;;;;;;;17.65;41.63;99309.59;5088838;28;20525;-41
2023/03/07 09:50:11;;;;;;;0.25;0.25;;;;;;;17.65;41.62;99309.59;5087304;28;20039;-42
2023/03/07 09:52:38;;;;;;;0.30;0.30;;;;;;;17.66;41.50;99315.91;5086579;27;20069;-41
2023/03/07 09:55:10;;;;;;;0.30;0.30;;;;;;;17.66;41.67;99314.00;5101942;28;20791;-42
2023/03/07 09:57:54;;;;;;;0.30;0.30;;;;;;;17.65;41.46;99309.59;5104992;27;20050;-42
2023/03/07 10:03:25;;;;;;;0.30;0.30;;;;;;;17.67;41.45;99321.13;5145824;27;20144;-39
2023/03/07 10:05:53;;;;;;;0.30;0.30;;;;;;;17.68;41.31;99327.44;5125663;27;20819;-39
2023/03/07 10:08:21;;;;;;;0.40;0.40;;;;;;;17.67;41.18;99331.34;5118434;27;20438;-40
2023/03/07 10:11:02;;;;;;;0.37;0.37;;;;;;;17.67;41.40;99334.09;5128335;27;20046;-44
2023/03/07 10:14:08;;;;;;;0.40;0.40;;;;;;;17.68;41.26;99338.47;5125564;27;20051;-41
2023/03/07 10:16:45;;;;;;;0.30;0.30;;;;;;;17.66;41.26;99335.19;5104097;27;20078;-38
2023/03/07 10:19:26;;;;;;;0.40;0.40;;;;;;;17.67;41.26;99340.41;5119453;27;20055;-42
2023/03/07 10:25:07;;;;;;;0.40;0.40;;;;;;;17.67;41.34;99340.41;5145681;27;20127;-39
2023/03/07 10:27:33;;;;;;;0.30;0.30;;;;;;;17.67;41.19;99340.41;5101217;27;21145;-40
2023/03/07 10:30:00;;;;;;;0.35;0.35;;;;;;;17.68;41.18;99327.44;5118390;27;20047;-40
2023/03/07 10:32:47;;;;;;;0.30;0.30;;;;;;;17.67;41.17;99343.16;5114233;27;20104;-45
2023/03/07 10:35:18;;;;;;;0.30;0.30;;;;;;;17.65;41.04;99339.88;5099862;27;20050;-42
2023/03/07 10:37:49;;;;;;;0.40;0.40;;;;;;;17.62;41.00;99340.53;5111323;27;20061;-42
2023/03/07 10:40:38;;;;;;;0.30;0.30;;;;;;;17.61;41.41;99351.81;5088283;27;20054;-41
2023/03/07 10:43:04;;;;;;;0.30;0.30;;;;;;;17.63;41.28;99338.59;5101325;27;20103;-41
2023/03/07 10:45:32;;;;;;;0.30;0.30;;;;;;;17.63;41.29;99341.34;5116597;27;20521;-41
2023/03/07 10:48:00;;;;;;;0.30;0.30;;;;;;;17.62;41.46;99356.22;5116175;27;20070;-41
2023/03/07 10:50:33;;;;;;;0.35;0.35;;;;;;;17.62;41.19;99348.78;5118315;27;20043;-44
2023/03/07 10:53:00;;;;;;;0.35;0.35;;;;;;;17.65;41.19;99356.41;5114700;27;20043;-41
2023/03/07 10:55:33;;;;;;;0.30;0.30;;;;;;;17.66;41.01;99351.69;5108032;27;20138;-42
2023/03/07 10:58:23;;;;;;;0.30;0.30;;;;;;;17.67;41.07;99353.34;5123215;27;20042;-41
2023/03/07 11:01:14;;;;;;;0.30;0.30;;;;;;;17.66;40.91;99354.47;5083935;27;20043;-42
2023/03/07 11:03:44;;;;;;;0.22;0.22;;;;;;;17.67;40.99;99367.13;5099392;27;20938;-42
2023/03/07 11:06:40;;;;;;;0.30;0.30;;;;;;;17.67;41.06;99365.19;5108989;27;20127;-41
2023/03/07 11:09:27;;;;;;;0.30;0.30;;;;;;;17.66;41.14;99366.31;5097502;27;20138;-41
2023/03/07 11:11:57;;;;;;;0.30;0.30;;;;;;;17.67;41.07;99367.13;5084949;27;20418;-44
2023/03/07 11:14:25;;;;;;;0.30;0.30;;;;;;;17.68;41.02;99371.50;5117577;27;20660;-42
2023/03/07 11:16:57;;;;;;;0.30;0.30;;;;;;;17.68;40.99;99368.75;5117137;27;20043;-41
2023/03/07 11:19:35;;;;;;;0.30;0.30;;;;;;;17.69;41.01;99373.13;5095837;27;20074;-41
2023/03/07 11:22:05;;;;;;;0.20;0.20;;;;;;;17.67;41.15;99365.19;5113624;27;20038;-43
2023/03/07 11:24:38;;;;;;;0.30;0.30;;;;;;;17.68;41.18;99369.56;5123005;27;20079;-42
2023/03/07 11:27:04;;;;;;;0.20;0.20;;;;;;;17.68;40.91;99366.81;5096315;27;20054;-41
2023/03/07 11:29:32;;;;;;;0.30;0.30;;;;;;;17.67;40.84;99365.19;5091202;27;20798;-43
2023/03/07 11:32:11;;;;;;;0.20;0.20;;;;;;;17.68;41.01;99361.31;5123127;27;20829;-41
2023/03/07 11:34:45;;;;;;;0.30;0.30;;;;;;;17.68;41.04;99364.06;5093819;27;20131;-42
2023/03/07 11:37:38;;;;;;;0.40;0.40;;;;;;;17.68;40.76;99349.47;5083890;27;20082;-41
2023/03/07 11:40:22;;;;;;;0.30;0.30;;;;;;;17.68;41.11;99361.31;5076635;27;20054;-42
2023/03/07 11:45:50;;;;;;;0.30;0.30;;;;;;;17.68;41.33;99361.31;5131020;27;20294;-39
2023/03/07 11:48:30;;;;;;;0.30;0.30;;;;;;;17.67;41.17;99354.16;5105175;27;20058;-40
2023/03/07 11:50:56;;;;;;;0.30;0.30;;;;;;;17.65;40.79;99342.63;5108718;27;20696;-41